sensor_id;sensor_type;location;lat;lon;timestamp;P1;durP1;ratioP1;P2;durP2;ratioP2
7047;SDS011;3565;53.254;10.352;2022-11-14T00:01:12;44.83;;;26.13;;
7047;SDS011;3565;53.254;10.352;2022-11-14T00:03:41;48.17;;;26.27;;
7047;SDS011;3565;53.254;10.352;2022-11-14T00:06:11;45.63;;;25.80;;
7047;SDS011;3565;53.254;10.352;2022-11-14T00:08:39;49.40;;;27.07;;
7047;SDS011;3565;53.254;10.352;2022-11-14T00:11:08;47.03;;;26.47;;
7047;SDS011;3565;53.254;10.352;2022-11-14T00:13:37;43.10;;;25.80;;
7047;SDS011;3565;53.254;10.352;2022-11-14T00:16:06;48.93;;;26.03;;
7047;SDS011;3565;53.254;10.352;2022-11-14T00:18:36;47.13;;;27.00;;
7047;SDS011;3565;53.254;10.352;2022-11-14T00:21:05;47.00;;;27.30;;
7047;SDS011;3565;53.254;10.352;2022-11-14T00:23:34;51.03;;;27.20;;
7047;SDS011;3565;53.254;10.352;2022-11-14T00:26:03;46.47;;;27.23;;
7047;SDS011;3565;53.254;10.352;2022-11-14T00:28:33;50.80;;;26.80;;
7047;SDS011;3565;53.254;10.352;2022-11-14T00:31:02;48.73;;;27.77;;
7047;SDS011;3565;53.254;10.352;2022-11-14T00:33:30;47.90;;;27.50;;
7047;SDS011;3565;53.254;10.352;2022-11-14T00:35:59;51.10;;;25.23;;
7047;SDS011;3565;53.254;10.352;2022-11-14T00:38:29;47.83;;;25.47;;
7047;SDS011;3565;53.254;10.352;2022-11-14T00:43:35;44.60;;;25.87;;
7047;SDS011;3565;53.254;10.352;2022-11-14T00:46:05;47.37;;;26.23;;
7047;SDS011;3565;53.254;10.352;2022-11-14T00:48:34;48.07;;;26.80;;
7047;SDS011;3565;53.254;10.352;2022-11-14T00:51:03;53.10;;;28.77;;
7047;SDS011;3565;53.254;10.352;2022-11-14T00:53:32;49.13;;;26.73;;
7047;SDS011;3565;53.254;10.352;2022-11-14T00:56:01;47.37;;;27.10;;
7047;SDS011;3565;53.254;10.352;2022-11-14T00:58:32;50.57;;;27.37;;
7047;SDS011;3565;53.254;10.352;2022-11-14T01:01:24;54.17;;;26.00;;
7047;SDS011;3565;53.254;10.352;2022-11-14T01:03:53;47.43;;;27.43;;
7047;SDS011;3565;53.254;10.352;2022-11-14T01:06:23;46.57;;;26.37;;
7047;SDS011;3565;53.254;10.352;2022-11-14T01:08:52;49.00;;;27.53;;
7047;SDS011;3565;53.254;10.352;2022-11-14T01:11:21;48.10;;;27.43;;
7047;SDS011;3565;53.254;10.352;2022-11-14T01:13:50;56.00;;;28.50;;
7047;SDS011;3565;53.254;10.352;2022-11-14T01:16:19;46.47;;;26.90;;
7047;SDS011;3565;53.254;10.352;2022-11-14T01:18:49;46.83;;;26.60;;
7047;SDS011;3565;53.254;10.352;2022-11-14T01:21:19;49.67;;;27.03;;
7047;SDS011;3565;53.254;10.352;2022-11-14T01:23:48;50.37;;;28.17;;
7047;SDS011;3565;53.254;10.352;2022-11-14T01:26:17;51.67;;;28.30;;
7047;SDS011;3565;53.254;10.352;2022-11-14T01:29:11;50.03;;;27.17;;
7047;SDS011;3565;53.254;10.352;2022-11-14T01:31:39;50.80;;;28.10;;
7047;SDS011;3565;53.254;10.352;2022-11-14T01:34:08;50.60;;;27.37;;
7047;SDS011;3565;53.254;10.352;2022-11-14T01:36:38;50.93;;;26.50;;
7047;SDS011;3565;53.254;10.352;2022-11-14T01:39:07;52.13;;;28.20;;
7047;SDS011;3565;53.254;10.352;2022-11-14T01:41:37;46.67;;;26.10;;
7047;SDS011;3565;53.254;10.352;2022-11-14T01:44:10;47.60;;;27.03;;
7047;SDS011;3565;53.254;10.352;2022-11-14T01:46:40;52.27;;;28.17;;
7047;SDS011;3565;53.254;10.352;2022-11-14T01:49:13;53.50;;;28.40;;
7047;SDS011;3565;53.254;10.352;2022-11-14T01:51:45;54.13;;;29.30;;
7047;SDS011;3565;53.254;10.352;2022-11-14T01:54:17;53.20;;;27.50;;
7047;SDS011;3565;53.254;10.352;2022-11-14T01:56:49;51.93;;;27.17;;
7047;SDS011;3565;53.254;10.352;2022-11-14T01:59:21;52.73;;;28.60;;
7047;SDS011;3565;53.254;10.352;2022-11-14T02:01:53;51.07;;;27.33;;
7047;SDS011;3565;53.254;10.352;2022-11-14T02:04:26;51.27;;;27.63;;
7047;SDS011;3565;53.254;10.352;2022-11-14T02:06:58;51.97;;;27.47;;
7047;SDS011;3565;53.254;10.352;2022-11-14T02:09:26;52.10;;;27.67;;
7047;SDS011;3565;53.254;10.352;2022-11-14T02:11:57;50.73;;;27.93;;
7047;SDS011;3565;53.254;10.352;2022-11-14T02:14:29;51.83;;;27.93;;
7047;SDS011;3565;53.254;10.352;2022-11-14T02:16:59;57.13;;;29.40;;
7047;SDS011;3565;53.254;10.352;2022-11-14T02:19:39;49.53;;;26.80;;
7047;SDS011;3565;53.254;10.352;2022-11-14T02:22:10;49.50;;;27.87;;
7047;SDS011;3565;53.254;10.352;2022-11-14T02:24:40;51.80;;;27.93;;
7047;SDS011;3565;53.254;10.352;2022-11-14T02:27:10;57.87;;;30.03;;
7047;SDS011;3565;53.254;10.352;2022-11-14T02:29:40;48.23;;;26.70;;
7047;SDS011;3565;53.254;10.352;2022-11-14T02:32:10;54.87;;;29.73;;
7047;SDS011;3565;53.254;10.352;2022-11-14T02:34:39;51.67;;;27.30;;
7047;SDS011;3565;53.254;10.352;2022-11-14T02:37:08;51.87;;;27.30;;
7047;SDS011;3565;53.254;10.352;2022-11-14T02:39:37;54.33;;;29.13;;
7047;SDS011;3565;53.254;10.352;2022-11-14T02:42:06;53.60;;;26.83;;
7047;SDS011;3565;53.254;10.352;2022-11-14T02:44:35;53.70;;;29.17;;
7047;SDS011;3565;53.254;10.352;2022-11-14T02:47:05;53.70;;;28.87;;
7047;SDS011;3565;53.254;10.352;2022-11-14T02:49:34;53.07;;;29.10;;
7047;SDS011;3565;53.254;10.352;2022-11-14T02:52:03;56.37;;;29.27;;
7047;SDS011;3565;53.254;10.352;2022-11-14T02:54:33;56.23;;;30.33;;
7047;SDS011;3565;53.254;10.352;2022-11-14T02:57:02;55.70;;;29.47;;
7047;SDS011;3565;53.254;10.352;2022-11-14T02:59:31;56.10;;;28.63;;
7047;SDS011;3565;53.254;10.352;2022-11-14T03:02:00;57.73;;;29.63;;
7047;SDS011;3565;53.254;10.352;2022-11-14T03:07:07;59.00;;;28.93;;
7047;SDS011;3565;53.254;10.352;2022-11-14T03:09:36;54.90;;;29.83;;
7047;SDS011;3565;53.254;10.352;2022-11-14T03:12:06;60.13;;;30.53;;
7047;SDS011;3565;53.254;10.352;2022-11-14T03:14:35;57.37;;;29.70;;
7047;SDS011;3565;53.254;10.352;2022-11-14T03:17:04;57.90;;;30.00;;
7047;SDS011;3565;53.254;10.352;2022-11-14T03:19:34;53.20;;;29.53;;
7047;SDS011;3565;53.254;10.352;2022-11-14T03:22:03;57.40;;;30.43;;
7047;SDS011;3565;53.254;10.352;2022-11-14T03:24:32;59.63;;;28.67;;
7047;SDS011;3565;53.254;10.352;2022-11-14T03:27:02;51.77;;;29.03;;
7047;SDS011;3565;53.254;10.352;2022-11-14T03:29:31;56.03;;;29.63;;
7047;SDS011;3565;53.254;10.352;2022-11-14T03:32:00;56.07;;;29.27;;
7047;SDS011;3565;53.254;10.352;2022-11-14T03:34:29;56.70;;;29.20;;
7047;SDS011;3565;53.254;10.352;2022-11-14T03:36:59;54.43;;;29.83;;
7047;SDS011;3565;53.254;10.352;2022-11-14T03:39:27;52.43;;;28.77;;
7047;SDS011;3565;53.254;10.352;2022-11-14T03:41:55;52.03;;;27.57;;
7047;SDS011;3565;53.254;10.352;2022-11-14T03:44:24;52.30;;;27.97;;
7047;SDS011;3565;53.254;10.352;2022-11-14T03:46:53;55.10;;;28.77;;
7047;SDS011;3565;53.254;10.352;2022-11-14T03:49:23;54.93;;;29.50;;
7047;SDS011;3565;53.254;10.352;2022-11-14T03:51:52;53.40;;;28.63;;
7047;SDS011;3565;53.254;10.352;2022-11-14T03:54:21;53.33;;;28.97;;
7047;SDS011;3565;53.254;10.352;2022-11-14T03:56:49;56.23;;;30.67;;
7047;SDS011;3565;53.254;10.352;2022-11-14T03:59:18;53.87;;;29.20;;
7047;SDS011;3565;53.254;10.352;2022-11-14T04:01:48;54.37;;;28.50;;
7047;SDS011;3565;53.254;10.352;2022-11-14T04:04:16;59.87;;;30.70;;
7047;SDS011;3565;53.254;10.352;2022-11-14T04:06:45;59.07;;;31.43;;
7047;SDS011;3565;53.254;10.352;2022-11-14T04:09:14;57.30;;;30.10;;
7047;SDS011;3565;53.254;10.352;2022-11-14T04:11:43;60.23;;;30.87;;
7047;SDS011;3565;53.254;10.352;2022-11-14T04:14:13;56.77;;;29.80;;
7047;SDS011;3565;53.254;10.352;2022-11-14T04:16:42;55.73;;;30.07;;
7047;SDS011;3565;53.254;10.352;2022-11-14T04:19:11;58.13;;;31.20;;
7047;SDS011;3565;53.254;10.352;2022-11-14T04:21:40;62.57;;;32.23;;
7047;SDS011;3565;53.254;10.352;2022-11-14T04:24:10;58.73;;;30.10;;
7047;SDS011;3565;53.254;10.352;2022-11-14T04:26:39;58.87;;;31.13;;
7047;SDS011;3565;53.254;10.352;2022-11-14T04:29:08;59.60;;;31.33;;
7047;SDS011;3565;53.254;10.352;2022-11-14T04:31:37;54.93;;;30.03;;
7047;SDS011;3565;53.254;10.352;2022-11-14T04:34:07;57.03;;;31.67;;
7047;SDS011;3565;53.254;10.352;2022-11-14T04:36:35;59.63;;;29.90;;
7047;SDS011;3565;53.254;10.352;2022-11-14T04:39:03;63.50;;;31.50;;
7047;SDS011;3565;53.254;10.352;2022-11-14T04:41:32;55.93;;;30.23;;
7047;SDS011;3565;53.254;10.352;2022-11-14T04:44:01;56.00;;;30.10;;
7047;SDS011;3565;53.254;10.352;2022-11-14T04:46:31;60.63;;;31.43;;
7047;SDS011;3565;53.254;10.352;2022-11-14T04:49:00;59.17;;;31.30;;
7047;SDS011;3565;53.254;10.352;2022-11-14T04:51:29;56.70;;;30.57;;
7047;SDS011;3565;53.254;10.352;2022-11-14T04:53:58;58.73;;;30.90;;
7047;SDS011;3565;53.254;10.352;2022-11-14T04:56:27;58.03;;;30.97;;
7047;SDS011;3565;53.254;10.352;2022-11-14T04:58:57;60.50;;;31.07;;
7047;SDS011;3565;53.254;10.352;2022-11-14T05:01:26;55.03;;;30.23;;
7047;SDS011;3565;53.254;10.352;2022-11-14T05:06:40;58.47;;;31.70;;
7047;SDS011;3565;53.254;10.352;2022-11-14T05:09:10;60.83;;;32.27;;
7047;SDS011;3565;53.254;10.352;2022-11-14T05:11:38;57.80;;;31.73;;
7047;SDS011;3565;53.254;10.352;2022-11-14T05:14:07;62.13;;;31.77;;
7047;SDS011;3565;53.254;10.352;2022-11-14T05:16:36;65.83;;;35.20;;
7047;SDS011;3565;53.254;10.352;2022-11-14T05:19:06;69.63;;;33.97;;
7047;SDS011;3565;53.254;10.352;2022-11-14T05:21:35;65.27;;;33.30;;
7047;SDS011;3565;53.254;10.352;2022-11-14T05:24:03;65.03;;;32.20;;
7047;SDS011;3565;53.254;10.352;2022-11-14T05:26:34;63.57;;;32.93;;
7047;SDS011;3565;53.254;10.352;2022-11-14T05:29:03;67.50;;;33.53;;
7047;SDS011;3565;53.254;10.352;2022-11-14T05:31:32;64.50;;;31.80;;
7047;SDS011;3565;53.254;10.352;2022-11-14T05:34:01;65.07;;;32.53;;
7047;SDS011;3565;53.254;10.352;2022-11-14T05:36:31;66.70;;;32.93;;
7047;SDS011;3565;53.254;10.352;2022-11-14T05:38:59;62.97;;;32.43;;
7047;SDS011;3565;53.254;10.352;2022-11-14T05:41:28;64.87;;;33.53;;
7047;SDS011;3565;53.254;10.352;2022-11-14T05:43:57;68.03;;;34.77;;
7047;SDS011;3565;53.254;10.352;2022-11-14T05:46:26;65.67;;;32.60;;
7047;SDS011;3565;53.254;10.352;2022-11-14T05:48:56;68.43;;;35.07;;
7047;SDS011;3565;53.254;10.352;2022-11-14T05:51:24;68.70;;;33.37;;
7047;SDS011;3565;53.254;10.352;2022-11-14T05:53:53;66.30;;;34.67;;
7047;SDS011;3565;53.254;10.352;2022-11-14T05:56:22;73.93;;;34.77;;
7047;SDS011;3565;53.254;10.352;2022-11-14T05:58:51;69.53;;;34.40;;
7047;SDS011;3565;53.254;10.352;2022-11-14T06:01:21;73.37;;;34.47;;
7047;SDS011;3565;53.254;10.352;2022-11-14T06:03:50;71.90;;;34.57;;
7047;SDS011;3565;53.254;10.352;2022-11-14T06:06:19;64.27;;;32.73;;
7047;SDS011;3565;53.254;10.352;2022-11-14T06:08:49;69.23;;;33.07;;
7047;SDS011;3565;53.254;10.352;2022-11-14T06:11:19;64.10;;;33.17;;
7047;SDS011;3565;53.254;10.352;2022-11-14T06:13:49;68.93;;;33.93;;
7047;SDS011;3565;53.254;10.352;2022-11-14T06:16:18;68.27;;;33.50;;
7047;SDS011;3565;53.254;10.352;2022-11-14T06:18:48;71.90;;;34.07;;
7047;SDS011;3565;53.254;10.352;2022-11-14T06:21:18;67.83;;;33.87;;
7047;SDS011;3565;53.254;10.352;2022-11-14T06:23:48;67.30;;;32.23;;
7047;SDS011;3565;53.254;10.352;2022-11-14T06:26:27;67.20;;;33.77;;
7047;SDS011;3565;53.254;10.352;2022-11-14T06:28:58;72.70;;;35.97;;
7047;SDS011;3565;53.254;10.352;2022-11-14T06:31:26;75.43;;;36.43;;
7047;SDS011;3565;53.254;10.352;2022-11-14T06:33:55;72.30;;;36.33;;
7047;SDS011;3565;53.254;10.352;2022-11-14T06:36:24;66.07;;;32.70;;
7047;SDS011;3565;53.254;10.352;2022-11-14T06:38:53;67.53;;;31.53;;
7047;SDS011;3565;53.254;10.352;2022-11-14T06:41:23;64.77;;;30.90;;
7047;SDS011;3565;53.254;10.352;2022-11-14T06:43:51;57.23;;;27.87;;
7047;SDS011;3565;53.254;10.352;2022-11-14T06:46:20;60.77;;;29.60;;
7047;SDS011;3565;53.254;10.352;2022-11-14T06:48:50;61.30;;;29.27;;
7047;SDS011;3565;53.254;10.352;2022-11-14T06:51:19;58.77;;;31.53;;
7047;SDS011;3565;53.254;10.352;2022-11-14T06:53:47;66.30;;;31.00;;
7047;SDS011;3565;53.254;10.352;2022-11-14T06:56:17;65.83;;;30.07;;
7047;SDS011;3565;53.254;10.352;2022-11-14T06:58:46;62.33;;;30.93;;
7047;SDS011;3565;53.254;10.352;2022-11-14T07:01:16;61.50;;;31.00;;
7047;SDS011;3565;53.254;10.352;2022-11-14T07:03:47;62.97;;;30.10;;
7047;SDS011;3565;53.254;10.352;2022-11-14T07:06:17;60.40;;;30.00;;
7047;SDS011;3565;53.254;10.352;2022-11-14T07:08:48;68.87;;;32.80;;
7047;SDS011;3565;53.254;10.352;2022-11-14T07:11:18;68.07;;;30.83;;
7047;SDS011;3565;53.254;10.352;2022-11-14T07:13:48;72.23;;;34.77;;
7047;SDS011;3565;53.254;10.352;2022-11-14T07:16:39;69.80;;;32.90;;
7047;SDS011;3565;53.254;10.352;2022-11-14T07:19:09;65.73;;;32.50;;
7047;SDS011;3565;53.254;10.352;2022-11-14T07:21:38;69.00;;;32.50;;
7047;SDS011;3565;53.254;10.352;2022-11-14T07:24:08;68.53;;;31.17;;
7047;SDS011;3565;53.254;10.352;2022-11-14T07:26:37;74.10;;;32.13;;
7047;SDS011;3565;53.254;10.352;2022-11-14T07:29:07;70.67;;;32.77;;
7047;SDS011;3565;53.254;10.352;2022-11-14T07:31:36;73.30;;;32.67;;
7047;SDS011;3565;53.254;10.352;2022-11-14T07:34:10;65.97;;;31.50;;
7047;SDS011;3565;53.254;10.352;2022-11-14T07:36:40;68.13;;;31.40;;
7047;SDS011;3565;53.254;10.352;2022-11-14T07:39:09;73.77;;;34.10;;
7047;SDS011;3565;53.254;10.352;2022-11-14T07:41:39;66.57;;;32.13;;
7047;SDS011;3565;53.254;10.352;2022-11-14T07:44:08;75.37;;;33.17;;
7047;SDS011;3565;53.254;10.352;2022-11-14T07:46:37;72.03;;;33.73;;
7047;SDS011;3565;53.254;10.352;2022-11-14T07:49:07;68.03;;;31.80;;
7047;SDS011;3565;53.254;10.352;2022-11-14T07:51:37;61.77;;;33.20;;
7047;SDS011;3565;53.254;10.352;2022-11-14T07:54:05;67.40;;;32.63;;
7047;SDS011;3565;53.254;10.352;2022-11-14T07:56:36;64.93;;;32.07;;
7047;SDS011;3565;53.254;10.352;2022-11-14T07:59:06;65.77;;;32.20;;
7047;SDS011;3565;53.254;10.352;2022-11-14T08:01:35;66.23;;;31.63;;
7047;SDS011;3565;53.254;10.352;2022-11-14T08:04:04;65.70;;;30.60;;
7047;SDS011;3565;53.254;10.352;2022-11-14T08:17:26;63.30;;;31.73;;
7047;SDS011;3565;53.254;10.352;2022-11-14T08:19:55;56.27;;;29.10;;
7047;SDS011;3565;53.254;10.352;2022-11-14T08:22:24;64.30;;;30.67;;
7047;SDS011;3565;53.254;10.352;2022-11-14T08:24:54;56.33;;;30.33;;
7047;SDS011;3565;53.254;10.352;2022-11-14T08:27:23;60.33;;;30.20;;
7047;SDS011;3565;53.254;10.352;2022-11-14T08:29:53;59.30;;;29.67;;
7047;SDS011;3565;53.254;10.352;2022-11-14T08:32:22;57.77;;;29.90;;
7047;SDS011;3565;53.254;10.352;2022-11-14T08:34:52;62.43;;;30.50;;
7047;SDS011;3565;53.254;10.352;2022-11-14T08:37:21;61.07;;;29.97;;
7047;SDS011;3565;53.254;10.352;2022-11-14T08:39:51;57.33;;;29.97;;
7047;SDS011;3565;53.254;10.352;2022-11-14T08:42:21;53.40;;;29.43;;
7047;SDS011;3565;53.254;10.352;2022-11-14T08:44:50;60.17;;;28.93;;
7047;SDS011;3565;53.254;10.352;2022-11-14T08:47:19;61.47;;;29.50;;
7047;SDS011;3565;53.254;10.352;2022-11-14T08:49:49;53.67;;;29.33;;
7047;SDS011;3565;53.254;10.352;2022-11-14T08:52:17;50.80;;;28.37;;
7047;SDS011;3565;53.254;10.352;2022-11-14T08:54:47;53.03;;;28.33;;
7047;SDS011;3565;53.254;10.352;2022-11-14T08:57:15;52.80;;;28.20;;
7047;SDS011;3565;53.254;10.352;2022-11-14T08:59:45;55.13;;;29.47;;
7047;SDS011;3565;53.254;10.352;2022-11-14T09:02:13;49.37;;;28.20;;
7047;SDS011;3565;53.254;10.352;2022-11-14T09:04:43;50.87;;;26.93;;
7047;SDS011;3565;53.254;10.352;2022-11-14T09:07:13;50.07;;;27.63;;
7047;SDS011;3565;53.254;10.352;2022-11-14T09:09:43;47.37;;;27.23;;
7047;SDS011;3565;53.254;10.352;2022-11-14T09:12:11;52.97;;;28.53;;
7047;SDS011;3565;53.254;10.352;2022-11-14T09:14:40;54.37;;;29.23;;
7047;SDS011;3565;53.254;10.352;2022-11-14T09:17:11;53.50;;;29.40;;
7047;SDS011;3565;53.254;10.352;2022-11-14T09:19:40;55.07;;;29.17;;
7047;SDS011;3565;53.254;10.352;2022-11-14T09:22:11;52.80;;;28.73;;
7047;SDS011;3565;53.254;10.352;2022-11-14T09:24:40;53.73;;;29.43;;
7047;SDS011;3565;53.254;10.352;2022-11-14T09:27:11;52.60;;;29.57;;
7047;SDS011;3565;53.254;10.352;2022-11-14T09:29:40;54.70;;;30.00;;
7047;SDS011;3565;53.254;10.352;2022-11-14T09:32:10;48.67;;;26.83;;
7047;SDS011;3565;53.254;10.352;2022-11-14T09:34:39;51.63;;;28.13;;
7047;SDS011;3565;53.254;10.352;2022-11-14T09:37:10;48.77;;;26.50;;
7047;SDS011;3565;53.254;10.352;2022-11-14T09:39:39;45.53;;;24.90;;
7047;SDS011;3565;53.254;10.352;2022-11-14T09:42:16;46.40;;;25.67;;
7047;SDS011;3565;53.254;10.352;2022-11-14T09:44:53;45.07;;;26.10;;
7047;SDS011;3565;53.254;10.352;2022-11-14T09:47:25;47.67;;;25.93;;
7047;SDS011;3565;53.254;10.352;2022-11-14T09:50:00;48.20;;;27.00;;
7047;SDS011;3565;53.254;10.352;2022-11-14T09:52:30;44.33;;;25.83;;
7047;SDS011;3565;53.254;10.352;2022-11-14T09:55:19;48.07;;;25.90;;
7047;SDS011;3565;53.254;10.352;2022-11-14T09:57:50;41.97;;;25.60;;
7047;SDS011;3565;53.254;10.352;2022-11-14T10:00:19;48.20;;;26.93;;
7047;SDS011;3565;53.254;10.352;2022-11-14T10:03:02;46.93;;;25.77;;
7047;SDS011;3565;53.254;10.352;2022-11-14T10:05:44;49.70;;;26.80;;
7047;SDS011;3565;53.254;10.352;2022-11-14T10:11:20;47.43;;;25.03;;
7047;SDS011;3565;53.254;10.352;2022-11-14T10:14:12;47.27;;;26.00;;
7047;SDS011;3565;53.254;10.352;2022-11-14T10:16:59;43.33;;;24.93;;
7047;SDS011;3565;53.254;10.352;2022-11-14T10:19:33;45.33;;;26.20;;
7047;SDS011;3565;53.254;10.352;2022-11-14T10:22:10;43.37;;;25.20;;
7047;SDS011;3565;53.254;10.352;2022-11-14T10:25:04;49.50;;;26.60;;
7047;SDS011;3565;53.254;10.352;2022-11-14T10:27:35;45.07;;;25.53;;
7047;SDS011;3565;53.254;10.352;2022-11-14T10:30:04;45.77;;;25.57;;
7047;SDS011;3565;53.254;10.352;2022-11-14T10:32:36;43.70;;;25.87;;
7047;SDS011;3565;53.254;10.352;2022-11-14T10:35:24;44.17;;;24.23;;
7047;SDS011;3565;53.254;10.352;2022-11-14T10:37:58;40.97;;;24.13;;
7047;SDS011;3565;53.254;10.352;2022-11-14T10:40:29;43.23;;;25.20;;
7047;SDS011;3565;53.254;10.352;2022-11-14T10:42:59;38.83;;;24.10;;
7047;SDS011;3565;53.254;10.352;2022-11-14T10:45:31;44.10;;;24.83;;
7047;SDS011;3565;53.254;10.352;2022-11-14T10:48:00;41.53;;;24.03;;
7047;SDS011;3565;53.254;10.352;2022-11-14T10:50:34;42.87;;;24.57;;
7047;SDS011;3565;53.254;10.352;2022-11-14T10:53:03;41.93;;;23.73;;
7047;SDS011;3565;53.254;10.352;2022-11-14T10:55:34;40.40;;;23.23;;
7047;SDS011;3565;53.254;10.352;2022-11-14T10:58:07;40.30;;;24.20;;
7047;SDS011;3565;53.254;10.352;2022-11-14T11:00:40;36.53;;;22.83;;
7047;SDS011;3565;53.254;10.352;2022-11-14T11:03:09;41.10;;;22.67;;
7047;SDS011;3565;53.254;10.352;2022-11-14T11:05:44;40.67;;;23.40;;
7047;SDS011;3565;53.254;10.352;2022-11-14T11:08:19;37.77;;;22.23;;
7047;SDS011;3565;53.254;10.352;2022-11-14T11:11:10;36.73;;;22.77;;
7047;SDS011;3565;53.254;10.352;2022-11-14T11:13:56;37.50;;;22.80;;
7047;SDS011;3565;53.254;10.352;2022-11-14T11:16:27;40.37;;;24.40;;
7047;SDS011;3565;53.254;10.352;2022-11-14T11:19:12;37.03;;;22.47;;
7047;SDS011;3565;53.254;10.352;2022-11-14T11:21:48;37.27;;;23.20;;
7047;SDS011;3565;53.254;10.352;2022-11-14T11:24:33;37.67;;;23.47;;
7047;SDS011;3565;53.254;10.352;2022-11-14T11:27:17;37.77;;;23.03;;
7047;SDS011;3565;53.254;10.352;2022-11-14T11:30:07;33.53;;;21.67;;
7047;SDS011;3565;53.254;10.352;2022-11-14T11:32:45;38.00;;;23.60;;
7047;SDS011;3565;53.254;10.352;2022-11-14T11:35:15;34.47;;;22.10;;
7047;SDS011;3565;53.254;10.352;2022-11-14T11:37:47;35.77;;;22.33;;
7047;SDS011;3565;53.254;10.352;2022-11-14T11:40:20;36.60;;;21.83;;
7047;SDS011;3565;53.254;10.352;2022-11-14T11:42:56;33.27;;;21.27;;
7047;SDS011;3565;53.254;10.352;2022-11-14T11:45:26;34.30;;;21.83;;
7047;SDS011;3565;53.254;10.352;2022-11-14T11:47:56;34.60;;;22.17;;
7047;SDS011;3565;53.254;10.352;2022-11-14T11:50:24;35.27;;;21.80;;
7047;SDS011;3565;53.254;10.352;2022-11-14T11:53:00;33.47;;;22.47;;
7047;SDS011;3565;53.254;10.352;2022-11-14T11:55:33;35.67;;;21.27;;
7047;SDS011;3565;53.254;10.352;2022-11-14T11:58:09;33.97;;;21.37;;
7047;SDS011;3565;53.254;10.352;2022-11-14T12:00:40;34.17;;;21.63;;
7047;SDS011;3565;53.254;10.352;2022-11-14T12:03:11;33.27;;;21.50;;
7047;SDS011;3565;53.254;10.352;2022-11-14T12:05:45;35.77;;;22.53;;
7047;SDS011;3565;53.254;10.352;2022-11-14T12:08:18;32.67;;;21.37;;
7047;SDS011;3565;53.254;10.352;2022-11-14T12:10:49;33.07;;;21.03;;
7047;SDS011;3565;53.254;10.352;2022-11-14T12:13:30;33.50;;;21.10;;
7047;SDS011;3565;53.254;10.352;2022-11-14T12:16:41;31.17;;;20.97;;
7047;SDS011;3565;53.254;10.352;2022-11-14T12:22:40;32.50;;;20.17;;
7047;SDS011;3565;53.254;10.352;2022-11-14T12:25:22;32.27;;;20.13;;
7047;SDS011;3565;53.254;10.352;2022-11-14T12:27:55;34.07;;;20.90;;
7047;SDS011;3565;53.254;10.352;2022-11-14T12:30:30;30.70;;;20.57;;
7047;SDS011;3565;53.254;10.352;2022-11-14T12:33:00;30.47;;;20.47;;
7047;SDS011;3565;53.254;10.352;2022-11-14T12:35:47;33.87;;;21.20;;
7047;SDS011;3565;53.254;10.352;2022-11-14T12:38:20;33.43;;;21.37;;
7047;SDS011;3565;53.254;10.352;2022-11-14T12:40:49;34.10;;;21.07;;
7047;SDS011;3565;53.254;10.352;2022-11-14T12:43:32;33.37;;;20.83;;
7047;SDS011;3565;53.254;10.352;2022-11-14T12:46:01;32.50;;;21.50;;
7047;SDS011;3565;53.254;10.352;2022-11-14T12:48:35;35.37;;;21.73;;
7047;SDS011;3565;53.254;10.352;2022-11-14T12:51:46;33.67;;;20.30;;
7047;SDS011;3565;53.254;10.352;2022-11-14T12:53:55;35.53;;;21.43;;
7047;SDS011;3565;53.254;10.352;2022-11-14T12:59:21;31.87;;;20.93;;
7047;SDS011;3565;53.254;10.352;2022-11-14T13:02:07;31.93;;;19.70;;
7047;SDS011;3565;53.254;10.352;2022-11-14T13:04:36;32.03;;;20.20;;
7047;SDS011;3565;53.254;10.352;2022-11-14T13:07:12;30.40;;;19.60;;
7047;SDS011;3565;53.254;10.352;2022-11-14T13:09:58;34.13;;;20.83;;
7047;SDS011;3565;53.254;10.352;2022-11-14T13:12:40;34.47;;;20.60;;
7047;SDS011;3565;53.254;10.352;2022-11-14T13:15:29;33.10;;;20.50;;
7047;SDS011;3565;53.254;10.352;2022-11-14T13:18:21;32.57;;;21.37;;
7047;SDS011;3565;53.254;10.352;2022-11-14T13:21:17;33.27;;;20.77;;
7047;SDS011;3565;53.254;10.352;2022-11-14T13:24:06;31.37;;;20.90;;
7047;SDS011;3565;53.254;10.352;2022-11-14T13:26:38;30.13;;;19.90;;
7047;SDS011;3565;53.254;10.352;2022-11-14T13:31:58;32.30;;;20.73;;
7047;SDS011;3565;53.254;10.352;2022-11-14T13:34:31;33.73;;;21.93;;
7047;SDS011;3565;53.254;10.352;2022-11-14T13:37:20;33.13;;;21.13;;
7047;SDS011;3565;53.254;10.352;2022-11-14T13:40:01;32.03;;;20.60;;
7047;SDS011;3565;53.254;10.352;2022-11-14T13:42:38;35.27;;;21.33;;
7047;SDS011;3565;53.254;10.352;2022-11-14T13:48:08;35.50;;;22.17;;
7047;SDS011;3565;53.254;10.352;2022-11-14T13:50:56;31.30;;;21.27;;
7047;SDS011;3565;53.254;10.352;2022-11-14T13:53:28;34.07;;;22.20;;
7047;SDS011;3565;53.254;10.352;2022-11-14T13:56:07;33.53;;;21.73;;
7047;SDS011;3565;53.254;10.352;2022-11-14T13:58:53;33.00;;;20.97;;
7047;SDS011;3565;53.254;10.352;2022-11-14T14:01:45;33.93;;;20.73;;
7047;SDS011;3565;53.254;10.352;2022-11-14T14:04:26;38.33;;;22.67;;
7047;SDS011;3565;53.254;10.352;2022-11-14T14:07:02;37.53;;;21.43;;
7047;SDS011;3565;53.254;10.352;2022-11-14T14:09:36;34.73;;;21.50;;
7047;SDS011;3565;53.254;10.352;2022-11-14T14:12:19;32.37;;;20.77;;
7047;SDS011;3565;53.254;10.352;2022-11-14T14:14:56;30.70;;;19.60;;
7047;SDS011;3565;53.254;10.352;2022-11-14T14:17:34;34.67;;;21.33;;
7047;SDS011;3565;53.254;10.352;2022-11-14T14:20:35;33.03;;;21.23;;
7047;SDS011;3565;53.254;10.352;2022-11-14T14:23:14;34.77;;;21.63;;
7047;SDS011;3565;53.254;10.352;2022-11-14T14:28:38;32.73;;;19.87;;
7047;SDS011;3565;53.254;10.352;2022-11-14T14:31:11;34.17;;;22.33;;
7047;SDS011;3565;53.254;10.352;2022-11-14T14:33:42;33.37;;;20.90;;
7047;SDS011;3565;53.254;10.352;2022-11-14T14:36:19;31.43;;;20.00;;
7047;SDS011;3565;53.254;10.352;2022-11-14T14:38:48;32.80;;;20.70;;
7047;SDS011;3565;53.254;10.352;2022-11-14T14:41:18;35.43;;;21.93;;
7047;SDS011;3565;53.254;10.352;2022-11-14T14:43:50;31.97;;;20.70;;
7047;SDS011;3565;53.254;10.352;2022-11-14T14:46:25;28.90;;;19.60;;
7047;SDS011;3565;53.254;10.352;2022-11-14T14:48:57;33.67;;;21.20;;
7047;SDS011;3565;53.254;10.352;2022-11-14T14:51:30;33.73;;;20.77;;
7047;SDS011;3565;53.254;10.352;2022-11-14T14:53:59;32.93;;;21.10;;
7047;SDS011;3565;53.254;10.352;2022-11-14T14:56:27;32.53;;;19.60;;
7047;SDS011;3565;53.254;10.352;2022-11-14T14:58:57;33.40;;;20.63;;
7047;SDS011;3565;53.254;10.352;2022-11-14T15:01:26;34.17;;;21.93;;
7047;SDS011;3565;53.254;10.352;2022-11-14T15:04:00;38.23;;;21.00;;
7047;SDS011;3565;53.254;10.352;2022-11-14T15:06:31;32.63;;;20.97;;
7047;SDS011;3565;53.254;10.352;2022-11-14T15:09:01;30.83;;;19.77;;
7047;SDS011;3565;53.254;10.352;2022-11-14T15:11:32;34.43;;;20.33;;
7047;SDS011;3565;53.254;10.352;2022-11-14T15:14:03;36.00;;;21.20;;
7047;SDS011;3565;53.254;10.352;2022-11-14T15:16:35;31.03;;;20.37;;
7047;SDS011;3565;53.254;10.352;2022-11-14T15:19:04;35.23;;;22.03;;
7047;SDS011;3565;53.254;10.352;2022-11-14T15:21:32;34.63;;;20.50;;
7047;SDS011;3565;53.254;10.352;2022-11-14T15:24:09;30.37;;;19.40;;
7047;SDS011;3565;53.254;10.352;2022-11-14T15:26:31;32.63;;;19.97;;
7047;SDS011;3565;53.254;10.352;2022-11-14T15:29:04;33.17;;;21.30;;
7047;SDS011;3565;53.254;10.352;2022-11-14T15:31:36;37.03;;;22.23;;
7047;SDS011;3565;53.254;10.352;2022-11-14T15:34:05;32.63;;;21.07;;
7047;SDS011;3565;53.254;10.352;2022-11-14T15:42:35;36.50;;;22.27;;
7047;SDS011;3565;53.254;10.352;2022-11-14T15:45:20;38.87;;;24.73;;